Time,TemperatureF,DewpointF,PressureIn,WindDirection,WindDirectionDegrees,WindSpeedMPH,WindSpeedGustMPH,Humidity,HourlyPrecipIn,Conditions,Clouds,dailyrainin,SoftwareType,DateUTC
2013-06-22 00:01:00,61.3,58.0,30.11,West,280,0.0,-999.0,88,-99.99,,,0.00,weatherlink.com 1.10,2013-06-22 04:01:00,
2013-06-22 00:16:00,60.9,58.0,30.12,West,280,0.0,-999.0,90,-99.99,,,0.00,weatherlink.com 1.10,2013-06-22 04:16:00,
2013-06-22 00:31:00,60.7,58.0,30.12,West,280,0.0,-999.0,91,-99.99,,,0.00,weatherlink.com 1.10,2013-06-22 04:31:00,
2013-06-22 00:46:00,60.5,58.0,30.11,West,280,0.0,-999.0,92,-99.99,,,0.00,weatherlink.com 1.10,2013-06-22 04:46:00,
2013-06-22 01:01:00,60.5,58.0,30.11,West,280,0.0,-999.0,92,-99.99,,,0.00,weatherlink.com 1.10,2013-06-22 05:01:00,
2013-06-22 01:16:00,60.5,58.0,30.11,West,280,0.0,-999.0,92,-99.99,,,0.00,weatherlink.com 1.10,2013-06-22 05:16:00,
2013-06-22 01:31:00,60.1,58.0,30.09,West,280,0.0,-999.0,92,-99.99,,,0.00,weatherlink.com 1.10,2013-06-22 05:31:00,
2013-06-22 01:46:00,59.5,57.0,30.09,West,280,0.0,-999.0,92,-99.99,,,0.00,weatherlink.com 1.10,2013-06-22 05:46:00,
2013-06-22 02:01:00,58.7,57.0,30.09,West,280,0.0,-999.0,94,-99.99,,,0.00,weatherlink.com 1.10,2013-06-22 06:01:00,
2013-06-22 02:18:00,58.3,57.0,30.09,West,280,0.0,-999.0,95,-99.99,,,0.00,weatherlink.com 1.10,2013-06-22 06:18:00,
2013-06-22 02:31:00,58.1,57.0,30.09,West,280,0.0,-999.0,96,-99.99,,,0.00,weatherlink.com 1.10,2013-06-22 06:31:00,
2013-06-22 02:46:00,58.1,57.0,30.08,West,280,0.0,-999.0,97,-99.99,,,0.00,weatherlink.com 1.10,2013-06-22 06:46:00,
2013-06-22 03:01:00,58.0,57.0,30.08,West,280,0.0,-999.0,97,-99.99,,,0.00,weatherlink.com 1.10,2013-06-22 07:01:00,
2013-06-22 03:16:00,57.8,57.0,30.08,West,280,0.0,-999.0,97,-99.99,,,0.00,weatherlink.com 1.10,2013-06-22 07:16:00,
2013-06-22 03:31:00,57.3,57.0,30.08,West,280,0.0,-999.0,97,-99.99,,,0.00,weatherlink.com 1.10,2013-06-22 07:31:00,
2013-06-22 03:46:00,56.7,56.0,30.09,West,280,0.0,-999.0,96,-99.99,,,0.00,weatherlink.com 1.10,2013-06-22 07:46:00,
2013-06-22 04:01:00,56.2,55.0,30.09,West,280,0.0,-999.0,96,-99.99,,,0.00,weatherlink.com 1.10,2013-06-22 08:01:00,
2013-06-22 04:16:00,55.6,55.0,30.09,West,280,0.0,-999.0,96,-99.99,,,0.00,weatherlink.com 1.10,2013-06-22 08:16:00,
2013-06-22 04:31:00,55.1,54.0,30.09,West,280,0.0,-999.0,96,-99.99,,,0.00,weatherlink.com 1.10,2013-06-22 08:31:00,
2013-06-22 04:46:00,54.7,54.0,30.09,West,280,0.0,-999.0,96,-99.99,,,0.00,weatherlink.com 1.10,2013-06-22 08:46:00,
2013-06-22 05:01:00,54.2,53.0,30.10,West,280,0.0,-999.0,96,-99.99,,,0.00,weatherlink.com 1.10,2013-06-22 09:01:00,
2013-06-22 05:16:00,53.8,53.0,30.10,West,280,0.0,-999.0,97,-99.99,,,0.00,weatherlink.com 1.10,2013-06-22 09:16:00,
2013-06-22 05:31:00,53.6,53.0,30.11,West,280,0.0,-999.0,97,-99.99,,,0.00,weatherlink.com 1.10,2013-06-22 09:31:00,
2013-06-22 05:46:00,53.5,53.0,30.11,West,280,0.0,-999.0,98,-99.99,,,0.00,weatherlink.com 1.10,2013-06-22 09:46:00,
2013-06-22 06:02:00,53.3,53.0,30.12,West,280,0.0,-999.0,98,-99.99,,,0.00,weatherlink.com 1.10,2013-06-22 10:02:00,
2013-06-22 06:17:00,52.9,52.0,30.13,West,280,0.0,-999.0,97,-99.99,,,0.00,weatherlink.com 1.10,2013-06-22 10:17:00,
2013-06-22 06:32:00,52.6,52.0,30.15,West,280,0.0,-999.0,98,-99.99,,,0.00,weatherlink.com 1.10,2013-06-22 10:32:00,
2013-06-22 06:47:00,52.5,52.0,30.15,West,280,0.0,-999.0,98,-99.99,,,0.00,weatherlink.com 1.10,2013-06-22 10:47:00,
2013-06-22 07:02:00,52.6,52.0,30.15,West,280,0.0,-999.0,98,-99.99,,,0.00,weatherlink.com 1.10,2013-06-22 11:02:00,
2013-06-22 07:17:00,52.8,53.0,30.15,West,280,0.0,-999.0,99,-99.99,,,0.00,weatherlink.com 1.10,2013-06-22 11:17:00,
2013-06-22 07:32:00,53.6,54.0,30.16,West,280,0.0,-999.0,100,-99.99,,,0.00,weatherlink.com 1.10,2013-06-22 11:32:00,
2013-06-22 07:47:00,54.2,54.0,30.16,West,280,0.0,-999.0,100,-99.99,,,0.00,weatherlink.com 1.10,2013-06-22 11:47:00,
2013-06-22 08:02:00,55.3,55.0,30.16,West,280,0.0,-999.0,100,-99.99,,,0.00,weatherlink.com 1.10,2013-06-22 12:02:00,
2013-06-22 08:17:00,56.6,55.0,30.14,North,0,0.0,-999.0,93,-99.99,,,0.00,weatherlink.com 1.10,2013-06-22 12:17:00,
2013-06-22 08:32:00,58.3,55.0,30.16,North,0,0.0,-999.0,89,-99.99,,,0.00,weatherlink.com 1.10,2013-06-22 12:32:00,
2013-06-22 08:47:00,59.3,56.0,30.15,North,6,0.0,-999.0,87,-99.99,,,0.00,weatherlink.com 1.10,2013-06-22 12:47:00,
2013-06-22 09:02:00,60.7,57.0,30.16,NW,318,0.0,-999.0,87,-99.99,,,0.00,weatherlink.com 1.10,2013-06-22 13:02:00,
2013-06-22 09:17:00,62.0,58.0,30.15,NW,309,0.0,-999.0,85,-99.99,,,0.00,weatherlink.com 1.10,2013-06-22 13:17:00,
2013-06-22 09:32:00,64.2,59.0,30.14,ESE,106,0.0,-999.0,84,-99.99,,,0.00,weatherlink.com 1.10,2013-06-22 13:32:00,
2013-06-22 09:47:00,66.3,58.0,30.14,NW,313,1.0,-999.0,75,-99.99,,,0.00,weatherlink.com 1.10,2013-06-22 13:47:00,
2013-06-22 10:02:00,68.1,61.0,30.12,NW,313,5.0,-999.0,77,-99.99,,,0.00,weatherlink.com 1.10,2013-06-22 14:02:00,
2013-06-22 10:17:00,68.6,60.0,30.12,NW,304,0.0,-999.0,74,-99.99,,,0.00,weatherlink.com 1.10,2013-06-22 14:17:00,
2013-06-22 10:32:00,70.8,62.0,30.12,WNW,282,3.0,-999.0,73,-99.99,,,0.00,weatherlink.com 1.10,2013-06-22 14:32:00,
2013-06-22 10:47:00,70.8,58.0,30.11,WNW,287,1.0,-999.0,65,-99.99,,,0.00,weatherlink.com 1.10,2013-06-22 14:47:00,
2013-06-22 11:02:00,71.6,61.0,30.11,WNW,294,0.0,-999.0,69,-99.99,,,0.00,weatherlink.com 1.10,2013-06-22 15:02:00,
2013-06-22 11:17:00,73.3,58.0,30.11,North,0,1.0,-999.0,60,-99.99,,,0.00,weatherlink.com 1.10,2013-06-22 15:17:00,
2013-06-22 11:32:00,73.2,61.0,30.12,NW,304,0.0,-999.0,65,-99.99,,,0.00,weatherlink.com 1.10,2013-06-22 15:32:00,
2013-06-22 11:47:00,74.4,61.0,30.12,NW,309,1.0,-999.0,64,-99.99,,,0.00,weatherlink.com 1.10,2013-06-22 15:47:00,
2013-06-22 12:02:00,75.8,59.0,30.12,NW,323,0.0,-999.0,56,-99.99,,,0.00,weatherlink.com 1.10,2013-06-22 16:02:00,
2013-06-22 12:17:00,76.3,59.0,30.11,NW,316,0.0,-999.0,56,-99.99,,,0.00,weatherlink.com 1.10,2013-06-22 16:17:00,
2013-06-22 12:32:00,76.1,57.0,30.12,WNW,302,0.0,-999.0,51,-99.99,,,0.00,weatherlink.com 1.10,2013-06-22 16:32:00,
2013-06-22 12:47:00,77.7,53.0,30.11,NE,55,0.0,-999.0,42,-99.99,,,0.00,weatherlink.com 1.10,2013-06-22 16:47:00,
2013-06-22 13:02:00,77.4,55.0,30.11,SW,232,0.0,-999.0,46,-99.99,,,0.00,weatherlink.com 1.10,2013-06-22 17:02:00,
2013-06-22 13:17:00,78.1,58.0,30.10,ESE,114,0.0,-999.0,50,-99.99,,,0.00,weatherlink.com 1.10,2013-06-22 17:17:00,
2013-06-22 13:32:00,79.9,60.0,30.10,North,349,0.0,-999.0,51,-99.99,,,0.00,weatherlink.com 1.10,2013-06-22 17:32:00,
2013-06-22 13:47:00,80.3,62.0,30.09,NNW,328,0.0,-999.0,53,-99.99,,,0.00,weatherlink.com 1.10,2013-06-22 17:47:00,
2013-06-22 14:02:00,79.8,64.0,30.09,ESE,120,0.0,-999.0,58,-99.99,,,0.00,weatherlink.com 1.10,2013-06-22 18:02:00,
2013-06-22 14:17:00,79.9,63.0,30.08,NNW,337,0.0,-999.0,57,-99.99,,,0.00,weatherlink.com 1.10,2013-06-22 18:17:00,
2013-06-22 14:32:00,80.5,63.0,30.07,North,0,1.0,-999.0,56,-99.99,,,0.00,weatherlink.com 1.10,2013-06-22 18:32:00,
2013-06-22 14:48:00,81.1,64.0,30.07,ESE,120,1.0,-999.0,56,-99.99,,,0.00,weatherlink.com 1.10,2013-06-22 18:48:00,
2013-06-22 15:03:00,81.6,63.0,30.07,NNW,347,1.0,-999.0,54,-99.99,,,0.00,weatherlink.com 1.10,2013-06-22 19:03:00,
2013-06-22 15:18:00,82.0,64.0,30.05,SE,130,0.0,-999.0,54,-99.99,,,0.00,weatherlink.com 1.10,2013-06-22 19:18:00,
2013-06-22 15:33:00,81.8,62.0,30.06,WNW,289,0.0,-999.0,52,-99.99,,,0.00,weatherlink.com 1.10,2013-06-22 19:33:00,
2013-06-22 15:48:00,81.4,65.0,30.05,ESE,114,0.0,-999.0,58,-99.99,,,0.00,weatherlink.com 1.10,2013-06-22 19:48:00,
2013-06-22 16:03:00,82.2,64.0,30.05,NW,311,1.0,-999.0,55,-99.99,,,0.00,weatherlink.com 1.10,2013-06-22 20:03:00,
2013-06-22 16:18:00,81.6,63.0,30.04,SE,143,0.0,-999.0,53,-99.99,,,0.00,weatherlink.com 1.10,2013-06-22 20:18:00,
2013-06-22 16:33:00,80.3,62.0,30.05,WSW,253,0.0,-999.0,54,-99.99,,,0.00,weatherlink.com 1.10,2013-06-22 20:33:00,
2013-06-22 16:48:00,79.8,62.0,30.05,East,79,0.0,-999.0,55,-99.99,,,0.00,weatherlink.com 1.10,2013-06-22 20:48:00,
2013-06-22 17:03:00,80.1,65.0,30.04,ENE,75,0.0,-999.0,60,-99.99,,,0.00,weatherlink.com 1.10,2013-06-22 21:03:00,
2013-06-22 17:18:00,81.2,64.0,30.03,North,349,0.0,-999.0,56,-99.99,,,0.00,weatherlink.com 1.10,2013-06-22 21:18:00,
2013-06-22 17:33:00,81.4,64.0,30.03,ESE,120,0.0,-999.0,56,-99.99,,,0.00,weatherlink.com 1.10,2013-06-22 21:33:00,
2013-06-22 17:48:00,80.9,63.0,30.03,SE,144,0.0,-999.0,54,-99.99,,,0.00,weatherlink.com 1.10,2013-06-22 21:48:00,
2013-06-22 18:05:00,80.7,64.0,30.02,WNW,295,0.0,-999.0,57,-99.99,,,0.00,weatherlink.com 1.10,2013-06-22 22:05:00,
2013-06-22 18:18:00,80.5,63.0,30.03,East,100,0.0,-999.0,55,-99.99,,,0.00,weatherlink.com 1.10,2013-06-22 22:18:00,
2013-06-22 18:33:00,78.6,62.0,30.04,West,272,0.0,-999.0,58,-99.99,,,0.00,weatherlink.com 1.10,2013-06-22 22:33:00,
2013-06-22 18:48:00,76.8,62.0,30.05,SSW,193,0.0,-999.0,61,-99.99,,,0.00,weatherlink.com 1.10,2013-06-22 22:48:00,
2013-06-22 19:03:00,75.1,62.0,30.05,West,261,0.0,-999.0,63,-99.99,,,0.00,weatherlink.com 1.10,2013-06-22 23:03:00,
2013-06-22 19:18:00,74.0,61.0,30.05,SW,224,0.0,-999.0,65,-99.99,,,0.00,weatherlink.com 1.10,2013-06-22 23:18:00,
2013-06-22 19:33:00,72.0,61.0,30.05,WSW,243,0.0,-999.0,68,-99.99,,,0.00,weatherlink.com 1.10,2013-06-22 23:33:00,
2013-06-22 19:48:00,70.9,60.0,30.07,WSW,243,0.0,-999.0,68,-99.99,,,0.00,weatherlink.com 1.10,2013-06-22 23:48:00,
2013-06-22 20:03:00,70.3,59.0,30.06,WSW,243,0.0,-999.0,68,-99.99,,,0.00,weatherlink.com 1.10,2013-06-23 00:03:00,
2013-06-22 20:18:00,69.3,62.0,30.06,WSW,243,0.0,-999.0,77,-99.99,,,0.00,weatherlink.com 1.10,2013-06-23 00:18:00,
2013-06-22 20:33:00,68.4,61.0,30.04,WSW,243,0.0,-999.0,77,-99.99,,,0.00,weatherlink.com 1.10,2013-06-23 00:33:00,
2013-06-22 20:50:00,67.6,61.0,30.04,WSW,243,0.0,-999.0,80,-99.99,,,0.00,weatherlink.com 1.10,2013-06-23 00:50:00,
2013-06-22 21:03:00,66.6,60.0,30.06,WSW,243,0.0,-999.0,80,-99.99,,,0.00,weatherlink.com 1.10,2013-06-23 01:03:00,
2013-06-22 21:18:00,65.5,61.0,30.06,WSW,243,0.0,-999.0,84,-99.99,,,0.00,weatherlink.com 1.10,2013-06-23 01:18:00,
2013-06-22 21:33:00,64.7,60.0,30.05,WSW,243,0.0,-999.0,84,-99.99,,,0.00,weatherlink.com 1.10,2013-06-23 01:33:00,
2013-06-22 21:48:00,64.0,59.0,30.06,WSW,243,0.0,-999.0,84,-99.99,,,0.00,weatherlink.com 1.10,2013-06-23 01:48:00,
2013-06-22 22:03:00,63.5,59.0,30.07,WSW,243,0.0,-999.0,85,-99.99,,,0.00,weatherlink.com 1.10,2013-06-23 02:03:00,
2013-06-22 22:18:00,63.1,59.0,30.07,WSW,243,0.0,-999.0,86,-99.99,,,0.00,weatherlink.com 1.10,2013-06-23 02:18:00,
2013-06-22 22:33:00,63.2,60.0,30.07,WSW,243,0.0,-999.0,88,-99.99,,,0.00,weatherlink.com 1.10,2013-06-23 02:33:00,
2013-06-22 22:48:00,63.4,60.0,30.07,WSW,243,0.0,-999.0,88,-99.99,,,0.00,weatherlink.com 1.10,2013-06-23 02:48:00,
2013-06-22 23:03:00,63.4,60.0,30.06,WSW,243,0.0,-999.0,88,-99.99,,,0.00,weatherlink.com 1.10,2013-06-23 03:03:00,
2013-06-22 23:18:00,63.4,60.0,30.06,WSW,243,0.0,-999.0,88,-99.99,,,0.00,weatherlink.com 1.10,2013-06-23 03:18:00,
2013-06-22 23:33:00,63.1,60.0,30.05,WSW,243,0.0,-999.0,88,-99.99,,,0.00,weatherlink.com 1.10,2013-06-23 03:33:00,
2013-06-22 23:48:00,63.2,60.0,30.06,WSW,243,0.0,-999.0,89,-99.99,,,0.00,weatherlink.com 1.10,2013-06-23 03:48:00,